sensor_id;sensor_type;location;lat;lon;timestamp;temperature;humidity
9666;DHT22;4871;52.004;5.924;2023-07-13T00:00:00;18.5;56.5
9666;DHT22;4871;52.004;5.924;2023-07-13T00:01:00;18.5;56.6
9666;DHT22;4871;52.004;5.924;2023-07-13T00:02:00;18.5;56.4
9666;DHT22;4871;52.004;5.924;2023-07-13T00:03:00;18.5;56.7
9666;DHT22;4871;52.004;5.924;2023-07-13T00:04:01;18.5;56.6
9666;DHT22;4871;52.004;5.924;2023-07-13T00:05:00;18.5;56.6
9666;DHT22;4871;52.004;5.924;2023-07-13T00:06:00;18.5;56.7
9666;DHT22;4871;52.004;5.924;2023-07-13T00:07:00;18.5;56.5
9666;DHT22;4871;52.004;5.924;2023-07-13T00:08:00;18.5;56.5
9666;DHT22;4871;52.004;5.924;2023-07-13T00:09:00;18.5;56.7
9666;DHT22;4871;52.004;5.924;2023-07-13T00:10:01;18.5;56.9
9666;DHT22;4871;52.004;5.924;2023-07-13T00:11:01;18.5;56.8
9666;DHT22;4871;52.004;5.924;2023-07-13T00:12:01;18.4;56.8
9666;DHT22;4871;52.004;5.924;2023-07-13T00:13:01;18.5;56.8
9666;DHT22;4871;52.004;5.924;2023-07-13T00:14:00;18.4;56.8
9666;DHT22;4871;52.004;5.924;2023-07-13T00:15:02;18.4;56.9
9666;DHT22;4871;52.004;5.924;2023-07-13T00:16:01;18.4;56.8
9666;DHT22;4871;52.004;5.924;2023-07-13T00:17:00;18.4;56.9
9666;DHT22;4871;52.004;5.924;2023-07-13T00:18:01;18.4;56.8
9666;DHT22;4871;52.004;5.924;2023-07-13T00:19:00;18.4;57.1
9666;DHT22;4871;52.004;5.924;2023-07-13T00:20:00;18.4;56.9
9666;DHT22;4871;52.004;5.924;2023-07-13T00:21:04;18.4;56.9
9666;DHT22;4871;52.004;5.924;2023-07-13T00:22:00;18.4;56.7
9666;DHT22;4871;52.004;5.924;2023-07-13T00:23:00;18.4;56.8
9666;DHT22;4871;52.004;5.924;2023-07-13T00:24:01;18.4;56.8
9666;DHT22;4871;52.004;5.924;2023-07-13T00:25:00;18.4;56.8
9666;DHT22;4871;52.004;5.924;2023-07-13T00:26:00;18.4;56.6
9666;DHT22;4871;52.004;5.924;2023-07-13T00:27:00;18.4;56.7
9666;DHT22;4871;52.004;5.924;2023-07-13T00:28:00;18.4;56.6
9666;DHT22;4871;52.004;5.924;2023-07-13T00:29:00;18.4;56.8
9666;DHT22;4871;52.004;5.924;2023-07-13T00:30:00;18.3;57.0
9666;DHT22;4871;52.004;5.924;2023-07-13T00:31:00;18.3;56.7
9666;DHT22;4871;52.004;5.924;2023-07-13T00:32:01;18.3;56.9
9666;DHT22;4871;52.004;5.924;2023-07-13T00:33:01;18.4;56.7
9666;DHT22;4871;52.004;5.924;2023-07-13T00:34:00;18.3;56.8
9666;DHT22;4871;52.004;5.924;2023-07-13T00:35:00;18.3;56.7
9666;DHT22;4871;52.004;5.924;2023-07-13T00:36:00;18.3;56.9
9666;DHT22;4871;52.004;5.924;2023-07-13T00:37:00;18.4;56.8
9666;DHT22;4871;52.004;5.924;2023-07-13T00:38:00;18.3;57.0
9666;DHT22;4871;52.004;5.924;2023-07-13T00:39:00;18.3;57.0
9666;DHT22;4871;52.004;5.924;2023-07-13T00:40:01;18.3;56.8
9666;DHT22;4871;52.004;5.924;2023-07-13T00:41:00;18.3;56.9
9666;DHT22;4871;52.004;5.924;2023-07-13T00:42:00;18.3;57.0
9666;DHT22;4871;52.004;5.924;2023-07-13T00:43:00;18.2;57.1
9666;DHT22;4871;52.004;5.924;2023-07-13T00:44:02;18.3;57.0
9666;DHT22;4871;52.004;5.924;2023-07-13T00:45:02;18.3;57.0
9666;DHT22;4871;52.004;5.924;2023-07-13T00:46:31;18.3;57.0
9666;DHT22;4871;52.004;5.924;2023-07-13T00:47:00;18.3;57.0
9666;DHT22;4871;52.004;5.924;2023-07-13T00:48:00;18.2;57.3
9666;DHT22;4871;52.004;5.924;2023-07-13T00:49:02;18.2;57.0
9666;DHT22;4871;52.004;5.924;2023-07-13T00:50:01;18.2;57.1
9666;DHT22;4871;52.004;5.924;2023-07-13T00:51:01;18.2;57.2
9666;DHT22;4871;52.004;5.924;2023-07-13T00:52:04;18.2;57.2
9666;DHT22;4871;52.004;5.924;2023-07-13T00:53:00;18.2;57.3
9666;DHT22;4871;52.004;5.924;2023-07-13T00:54:04;18.2;57.2
9666;DHT22;4871;52.004;5.924;2023-07-13T00:55:00;18.2;57.2
9666;DHT22;4871;52.004;5.924;2023-07-13T00:56:00;18.2;57.2
9666;DHT22;4871;52.004;5.924;2023-07-13T00:57:09;18.1;57.4
9666;DHT22;4871;52.004;5.924;2023-07-13T00:58:01;18.1;57.4
9666;DHT22;4871;52.004;5.924;2023-07-13T00:59:02;18.1;57.4
9666;DHT22;4871;52.004;5.924;2023-07-13T01:00:03;18.1;57.4
9666;DHT22;4871;52.004;5.924;2023-07-13T01:01:00;18.1;57.3
9666;DHT22;4871;52.004;5.924;2023-07-13T01:02:01;18.1;57.3
9666;DHT22;4871;52.004;5.924;2023-07-13T01:03:04;18.1;57.3
9666;DHT22;4871;52.004;5.924;2023-07-13T01:04:00;18.1;57.2
9666;DHT22;4871;52.004;5.924;2023-07-13T01:05:08;18.1;57.1
9666;DHT22;4871;52.004;5.924;2023-07-13T01:06:00;18.1;57.1
9666;DHT22;4871;52.004;5.924;2023-07-13T01:07:00;18.1;57.3
9666;DHT22;4871;52.004;5.924;2023-07-13T01:08:01;18.0;57.3
9666;DHT22;4871;52.004;5.924;2023-07-13T01:09:01;18.0;57.5
9666;DHT22;4871;52.004;5.924;2023-07-13T01:10:00;18.0;57.5
9666;DHT22;4871;52.004;5.924;2023-07-13T01:11:00;18.0;57.4
9666;DHT22;4871;52.004;5.924;2023-07-13T01:12:00;18.0;57.4
9666;DHT22;4871;52.004;5.924;2023-07-13T01:13:00;18.0;57.4
9666;DHT22;4871;52.004;5.924;2023-07-13T01:14:01;18.0;57.6
9666;DHT22;4871;52.004;5.924;2023-07-13T01:15:01;18.0;57.7
9666;DHT22;4871;52.004;5.924;2023-07-13T01:16:04;18.0;57.7
9666;DHT22;4871;52.004;5.924;2023-07-13T01:17:00;18.0;57.6
9666;DHT22;4871;52.004;5.924;2023-07-13T01:18:00;17.9;57.6
9666;DHT22;4871;52.004;5.924;2023-07-13T01:19:03;18.0;57.5
9666;DHT22;4871;52.004;5.924;2023-07-13T01:20:00;18.0;57.5
9666;DHT22;4871;52.004;5.924;2023-07-13T01:21:02;18.0;57.2
9666;DHT22;4871;52.004;5.924;2023-07-13T01:22:00;17.9;57.5
9666;DHT22;4871;52.004;5.924;2023-07-13T01:23:00;17.9;57.5
9666;DHT22;4871;52.004;5.924;2023-07-13T01:24:00;17.9;57.4
9666;DHT22;4871;52.004;5.924;2023-07-13T01:25:00;17.9;57.6
9666;DHT22;4871;52.004;5.924;2023-07-13T01:26:00;17.9;57.5
9666;DHT22;4871;52.004;5.924;2023-07-13T01:27:00;17.9;57.5
9666;DHT22;4871;52.004;5.924;2023-07-13T01:28:00;17.9;57.6
9666;DHT22;4871;52.004;5.924;2023-07-13T01:29:00;17.9;57.4
9666;DHT22;4871;52.004;5.924;2023-07-13T01:30:04;17.9;57.5
9666;DHT22;4871;52.004;5.924;2023-07-13T01:31:00;17.8;57.7
9666;DHT22;4871;52.004;5.924;2023-07-13T01:32:01;17.8;57.5
9666;DHT22;4871;52.004;5.924;2023-07-13T01:33:00;17.8;57.7
9666;DHT22;4871;52.004;5.924;2023-07-13T01:34:00;17.8;57.6
9666;DHT22;4871;52.004;5.924;2023-07-13T01:35:00;17.8;57.6
9666;DHT22;4871;52.004;5.924;2023-07-13T01:36:02;17.8;57.5
9666;DHT22;4871;52.004;5.924;2023-07-13T01:37:00;17.8;57.6
9666;DHT22;4871;52.004;5.924;2023-07-13T01:38:01;17.8;58.0
9666;DHT22;4871;52.004;5.924;2023-07-13T01:39:00;17.8;57.8
9666;DHT22;4871;52.004;5.924;2023-07-13T01:40:00;17.8;57.6
9666;DHT22;4871;52.004;5.924;2023-07-13T01:41:00;17.8;57.7
9666;DHT22;4871;52.004;5.924;2023-07-13T01:42:00;17.8;57.7
9666;DHT22;4871;52.004;5.924;2023-07-13T01:43:00;17.8;57.8
9666;DHT22;4871;52.004;5.924;2023-07-13T01:44:00;17.7;58.1
9666;DHT22;4871;52.004;5.924;2023-07-13T01:45:00;17.7;58.0
9666;DHT22;4871;52.004;5.924;2023-07-13T01:46:00;17.7;57.7
9666;DHT22;4871;52.004;5.924;2023-07-13T01:47:07;17.7;57.9
9666;DHT22;4871;52.004;5.924;2023-07-13T01:48:00;17.7;57.9
9666;DHT22;4871;52.004;5.924;2023-07-13T01:49:00;17.7;57.9
9666;DHT22;4871;52.004;5.924;2023-07-13T01:50:00;17.8;57.8
9666;DHT22;4871;52.004;5.924;2023-07-13T01:51:00;17.8;57.9
9666;DHT22;4871;52.004;5.924;2023-07-13T01:52:00;17.8;57.7
9666;DHT22;4871;52.004;5.924;2023-07-13T01:53:00;17.7;58.1
9666;DHT22;4871;52.004;5.924;2023-07-13T01:54:00;17.7;58.1
9666;DHT22;4871;52.004;5.924;2023-07-13T01:55:00;17.7;58.0
9666;DHT22;4871;52.004;5.924;2023-07-13T01:56:00;17.7;57.9
9666;DHT22;4871;52.004;5.924;2023-07-13T01:57:00;17.7;58.3
9666;DHT22;4871;52.004;5.924;2023-07-13T01:58:01;17.7;58.2
9666;DHT22;4871;52.004;5.924;2023-07-13T01:59:00;17.7;58.2
9666;DHT22;4871;52.004;5.924;2023-07-13T02:00:03;17.7;58.3
9666;DHT22;4871;52.004;5.924;2023-07-13T02:01:00;17.7;58.4
9666;DHT22;4871;52.004;5.924;2023-07-13T02:02:00;17.6;58.4
9666;DHT22;4871;52.004;5.924;2023-07-13T02:03:00;17.6;58.3
9666;DHT22;4871;52.004;5.924;2023-07-13T02:04:00;17.6;58.2
9666;DHT22;4871;52.004;5.924;2023-07-13T02:05:00;17.7;58.2
9666;DHT22;4871;52.004;5.924;2023-07-13T02:06:00;17.7;58.3
9666;DHT22;4871;52.004;5.924;2023-07-13T02:07:00;17.6;58.1
9666;DHT22;4871;52.004;5.924;2023-07-13T02:08:00;17.6;58.5
9666;DHT22;4871;52.004;5.924;2023-07-13T02:09:00;17.6;58.9
9666;DHT22;4871;52.004;5.924;2023-07-13T02:10:00;17.6;58.8
9666;DHT22;4871;52.004;5.924;2023-07-13T02:11:00;17.6;58.8
9666;DHT22;4871;52.004;5.924;2023-07-13T02:12:00;17.6;58.6
9666;DHT22;4871;52.004;5.924;2023-07-13T02:13:00;17.5;58.7
9666;DHT22;4871;52.004;5.924;2023-07-13T02:14:02;17.6;58.7
9666;DHT22;4871;52.004;5.924;2023-07-13T02:15:00;17.6;58.5
9666;DHT22;4871;52.004;5.924;2023-07-13T02:16:00;17.5;58.8
9666;DHT22;4871;52.004;5.924;2023-07-13T02:17:00;17.6;58.7
9666;DHT22;4871;52.004;5.924;2023-07-13T02:18:00;17.5;58.9
9666;DHT22;4871;52.004;5.924;2023-07-13T02:19:00;17.5;58.8
9666;DHT22;4871;52.004;5.924;2023-07-13T02:20:00;17.5;58.6
9666;DHT22;4871;52.004;5.924;2023-07-13T02:21:00;17.6;58.5
9666;DHT22;4871;52.004;5.924;2023-07-13T02:22:00;17.6;58.5
9666;DHT22;4871;52.004;5.924;2023-07-13T02:23:00;17.6;58.5
9666;DHT22;4871;52.004;5.924;2023-07-13T02:24:00;17.5;58.7
9666;DHT22;4871;52.004;5.924;2023-07-13T02:25:00;17.5;58.8
9666;DHT22;4871;52.004;5.924;2023-07-13T02:26:03;17.5;58.8
9666;DHT22;4871;52.004;5.924;2023-07-13T02:27:00;17.5;58.8
9666;DHT22;4871;52.004;5.924;2023-07-13T02:28:00;17.5;58.7
9666;DHT22;4871;52.004;5.924;2023-07-13T02:29:00;17.4;59.2
9666;DHT22;4871;52.004;5.924;2023-07-13T02:30:00;17.5;58.8
9666;DHT22;4871;52.004;5.924;2023-07-13T02:31:09;17.5;58.8
9666;DHT22;4871;52.004;5.924;2023-07-13T02:32:00;17.5;58.8
9666;DHT22;4871;52.004;5.924;2023-07-13T02:33:00;17.5;58.7
9666;DHT22;4871;52.004;5.924;2023-07-13T02:34:00;17.5;58.8
9666;DHT22;4871;52.004;5.924;2023-07-13T02:35:00;17.5;58.7
9666;DHT22;4871;52.004;5.924;2023-07-13T02:36:00;17.5;59.0
9666;DHT22;4871;52.004;5.924;2023-07-13T02:37:00;17.5;58.8
9666;DHT22;4871;52.004;5.924;2023-07-13T02:38:00;17.4;58.9
9666;DHT22;4871;52.004;5.924;2023-07-13T02:39:03;17.4;59.1
9666;DHT22;4871;52.004;5.924;2023-07-13T02:40:00;17.4;59.0
9666;DHT22;4871;52.004;5.924;2023-07-13T02:41:00;17.4;58.9
9666;DHT22;4871;52.004;5.924;2023-07-13T02:42:00;17.4;58.9
9666;DHT22;4871;52.004;5.924;2023-07-13T02:43:00;17.4;59.1
9666;DHT22;4871;52.004;5.924;2023-07-13T02:44:03;17.4;59.0
9666;DHT22;4871;52.004;5.924;2023-07-13T02:45:00;17.3;59.0
9666;DHT22;4871;52.004;5.924;2023-07-13T02:46:06;17.4;59.1
9666;DHT22;4871;52.004;5.924;2023-07-13T02:47:00;17.3;59.1
9666;DHT22;4871;52.004;5.924;2023-07-13T02:48:00;17.4;59.1
9666;DHT22;4871;52.004;5.924;2023-07-13T02:49:00;17.3;59.4
9666;DHT22;4871;52.004;5.924;2023-07-13T02:50:01;17.3;59.3
9666;DHT22;4871;52.004;5.924;2023-07-13T02:51:00;17.3;58.9
9666;DHT22;4871;52.004;5.924;2023-07-13T02:52:01;17.3;59.0
9666;DHT22;4871;52.004;5.924;2023-07-13T02:53:00;17.3;59.1
9666;DHT22;4871;52.004;5.924;2023-07-13T02:54:00;17.3;59.1
9666;DHT22;4871;52.004;5.924;2023-07-13T02:55:00;17.3;59.2
9666;DHT22;4871;52.004;5.924;2023-07-13T02:56:00;17.3;59.3
9666;DHT22;4871;52.004;5.924;2023-07-13T02:57:00;17.3;59.1
9666;DHT22;4871;52.004;5.924;2023-07-13T02:58:01;17.4;59.0
9666;DHT22;4871;52.004;5.924;2023-07-13T02:59:00;17.3;59.2
9666;DHT22;4871;52.004;5.924;2023-07-13T03:00:00;17.3;59.2
9666;DHT22;4871;52.004;5.924;2023-07-13T03:01:05;17.3;59.2
9666;DHT22;4871;52.004;5.924;2023-07-13T03:02:00;17.2;59.5
9666;DHT22;4871;52.004;5.924;2023-07-13T03:03:00;17.2;59.6
9666;DHT22;4871;52.004;5.924;2023-07-13T03:04:00;17.2;59.7
9666;DHT22;4871;52.004;5.924;2023-07-13T03:05:01;17.3;59.4
9666;DHT22;4871;52.004;5.924;2023-07-13T03:06:01;17.2;59.1
9666;DHT22;4871;52.004;5.924;2023-07-13T03:07:00;17.2;59.4
9666;DHT22;4871;52.004;5.924;2023-07-13T03:08:00;17.2;59.4
9666;DHT22;4871;52.004;5.924;2023-07-13T03:09:00;17.2;59.2
9666;DHT22;4871;52.004;5.924;2023-07-13T03:10:00;17.3;59.1
9666;DHT22;4871;52.004;5.924;2023-07-13T03:11:00;17.2;59.1
9666;DHT22;4871;52.004;5.924;2023-07-13T03:12:00;17.1;59.5
9666;DHT22;4871;52.004;5.924;2023-07-13T03:13:00;17.2;59.4
9666;DHT22;4871;52.004;5.924;2023-07-13T03:14:00;17.2;59.2
9666;DHT22;4871;52.004;5.924;2023-07-13T03:15:00;17.2;59.4
9666;DHT22;4871;52.004;5.924;2023-07-13T03:16:00;17.1;59.5
9666;DHT22;4871;52.004;5.924;2023-07-13T03:17:00;17.2;59.8
9666;DHT22;4871;52.004;5.924;2023-07-13T03:18:00;17.2;59.4
9666;DHT22;4871;52.004;5.924;2023-07-13T03:19:00;17.2;59.5
9666;DHT22;4871;52.004;5.924;2023-07-13T03:20:00;17.2;59.4
9666;DHT22;4871;52.004;5.924;2023-07-13T03:21:00;17.2;59.4
9666;DHT22;4871;52.004;5.924;2023-07-13T03:22:00;17.1;59.5
9666;DHT22;4871;52.004;5.924;2023-07-13T03:23:00;17.1;59.6
9666;DHT22;4871;52.004;5.924;2023-07-13T03:24:00;17.1;59.5
9666;DHT22;4871;52.004;5.924;2023-07-13T03:25:00;17.2;59.4
9666;DHT22;4871;52.004;5.924;2023-07-13T03:26:02;17.1;59.3
9666;DHT22;4871;52.004;5.924;2023-07-13T03:27:01;17.1;59.3
9666;DHT22;4871;52.004;5.924;2023-07-13T03:28:00;17.1;59.5
9666;DHT22;4871;52.004;5.924;2023-07-13T03:29:00;17.1;59.5
9666;DHT22;4871;52.004;5.924;2023-07-13T03:30:00;17.1;59.5
9666;DHT22;4871;52.004;5.924;2023-07-13T03:31:01;17.1;59.8
9666;DHT22;4871;52.004;5.924;2023-07-13T03:32:00;17.1;59.8
9666;DHT22;4871;52.004;5.924;2023-07-13T03:33:00;17.1;59.7
9666;DHT22;4871;52.004;5.924;2023-07-13T03:34:00;17.0;60.0
9666;DHT22;4871;52.004;5.924;2023-07-13T03:35:01;17.0;60.1
9666;DHT22;4871;52.004;5.924;2023-07-13T03:36:00;17.0;60.0
9666;DHT22;4871;52.004;5.924;2023-07-13T03:37:00;17.0;60.1
9666;DHT22;4871;52.004;5.924;2023-07-13T03:38:00;17.0;59.9
9666;DHT22;4871;52.004;5.924;2023-07-13T03:39:02;17.1;59.9
9666;DHT22;4871;52.004;5.924;2023-07-13T03:40:00;17.0;59.8
9666;DHT22;4871;52.004;5.924;2023-07-13T03:41:00;17.1;59.8
9666;DHT22;4871;52.004;5.924;2023-07-13T03:42:00;17.0;59.7
9666;DHT22;4871;52.004;5.924;2023-07-13T03:43:02;17.0;60.0
9666;DHT22;4871;52.004;5.924;2023-07-13T03:44:00;17.0;60.1
9666;DHT22;4871;52.004;5.924;2023-07-13T03:45:00;16.9;60.7
9666;DHT22;4871;52.004;5.924;2023-07-13T03:46:00;16.9;60.2
9666;DHT22;4871;52.004;5.924;2023-07-13T03:47:00;17.0;60.0
9666;DHT22;4871;52.004;5.924;2023-07-13T03:48:00;17.0;59.9
9666;DHT22;4871;52.004;5.924;2023-07-13T03:49:01;17.0;59.8
9666;DHT22;4871;52.004;5.924;2023-07-13T03:50:00;17.0;59.9
9666;DHT22;4871;52.004;5.924;2023-07-13T03:51:00;17.0;59.7
9666;DHT22;4871;52.004;5.924;2023-07-13T03:52:00;17.0;59.7
9666;DHT22;4871;52.004;5.924;2023-07-13T03:53:00;17.0;59.8
9666;DHT22;4871;52.004;5.924;2023-07-13T03:54:00;17.1;59.6
9666;DHT22;4871;52.004;5.924;2023-07-13T03:55:00;17.1;59.5
9666;DHT22;4871;52.004;5.924;2023-07-13T03:56:00;16.9;60.2
9666;DHT22;4871;52.004;5.924;2023-07-13T03:57:00;16.9;60.2
9666;DHT22;4871;52.004;5.924;2023-07-13T03:59:00;17.0;60.1
9666;DHT22;4871;52.004;5.924;2023-07-13T04:00:00;16.9;60.6
9666;DHT22;4871;52.004;5.924;2023-07-13T04:01:01;16.9;60.7
9666;DHT22;4871;52.004;5.924;2023-07-13T04:02:00;16.9;60.7
9666;DHT22;4871;52.004;5.924;2023-07-13T04:03:00;16.9;60.6
9666;DHT22;4871;52.004;5.924;2023-07-13T04:04:00;16.9;60.4
9666;DHT22;4871;52.004;5.924;2023-07-13T04:05:00;17.0;60.4
9666;DHT22;4871;52.004;5.924;2023-07-13T04:06:01;16.9;60.3
9666;DHT22;4871;52.004;5.924;2023-07-13T04:07:00;17.0;60.2
9666;DHT22;4871;52.004;5.924;2023-07-13T04:08:00;16.9;60.0
9666;DHT22;4871;52.004;5.924;2023-07-13T04:09:02;16.9;60.2
9666;DHT22;4871;52.004;5.924;2023-07-13T04:10:00;17.0;60.0
9666;DHT22;4871;52.004;5.924;2023-07-13T04:11:02;17.0;59.9
9666;DHT22;4871;52.004;5.924;2023-07-13T04:12:00;17.0;59.9
9666;DHT22;4871;52.004;5.924;2023-07-13T04:13:00;16.9;60.1
9666;DHT22;4871;52.004;5.924;2023-07-13T04:14:00;16.9;60.1
9666;DHT22;4871;52.004;5.924;2023-07-13T04:15:00;16.9;60.1
9666;DHT22;4871;52.004;5.924;2023-07-13T04:16:00;16.9;60.1
9666;DHT22;4871;52.004;5.924;2023-07-13T04:17:00;16.9;60.2
9666;DHT22;4871;52.004;5.924;2023-07-13T04:18:00;16.9;60.3
9666;DHT22;4871;52.004;5.924;2023-07-13T04:19:00;16.9;60.2
9666;DHT22;4871;52.004;5.924;2023-07-13T04:20:00;17.0;60.0
9666;DHT22;4871;52.004;5.924;2023-07-13T04:21:00;17.0;60.0
9666;DHT22;4871;52.004;5.924;2023-07-13T04:22:00;17.0;60.1
9666;DHT22;4871;52.004;5.924;2023-07-13T04:23:00;17.0;60.0
9666;DHT22;4871;52.004;5.924;2023-07-13T04:24:00;16.9;60.2
9666;DHT22;4871;52.004;5.924;2023-07-13T04:25:00;16.9;60.2
9666;DHT22;4871;52.004;5.924;2023-07-13T04:26:00;16.9;60.3
9666;DHT22;4871;52.004;5.924;2023-07-13T04:27:02;16.9;59.9
9666;DHT22;4871;52.004;5.924;2023-07-13T04:28:00;16.9;60.3
9666;DHT22;4871;52.004;5.924;2023-07-13T04:29:00;16.9;60.2
9666;DHT22;4871;52.004;5.924;2023-07-13T04:30:00;16.9;60.5
9666;DHT22;4871;52.004;5.924;2023-07-13T04:31:00;16.9;60.4
9666;DHT22;4871;52.004;5.924;2023-07-13T04:32:00;16.9;60.6
9666;DHT22;4871;52.004;5.924;2023-07-13T04:33:00;16.9;60.7
9666;DHT22;4871;52.004;5.924;2023-07-13T04:34:00;16.9;60.6
9666;DHT22;4871;52.004;5.924;2023-07-13T04:35:00;16.9;60.3
9666;DHT22;4871;52.004;5.924;2023-07-13T04:36:01;16.9;60.3
9666;DHT22;4871;52.004;5.924;2023-07-13T04:37:01;16.9;60.5
9666;DHT22;4871;52.004;5.924;2023-07-13T04:38:00;16.9;60.4
9666;DHT22;4871;52.004;5.924;2023-07-13T04:39:00;16.9;60.5
9666;DHT22;4871;52.004;5.924;2023-07-13T04:40:00;17.0;60.3
9666;DHT22;4871;52.004;5.924;2023-07-13T04:41:03;17.0;60.5
9666;DHT22;4871;52.004;5.924;2023-07-13T04:42:00;17.0;60.4
9666;DHT22;4871;52.004;5.924;2023-07-13T04:43:00;17.0;60.7
9666;DHT22;4871;52.004;5.924;2023-07-13T04:44:00;16.9;61.0
9666;DHT22;4871;52.004;5.924;2023-07-13T04:45:00;16.9;61.3
9666;DHT22;4871;52.004;5.924;2023-07-13T04:46:03;16.9;61.4
9666;DHT22;4871;52.004;5.924;2023-07-13T04:47:00;17.0;61.0
9666;DHT22;4871;52.004;5.924;2023-07-13T04:48:00;17.0;61.6
9666;DHT22;4871;52.004;5.924;2023-07-13T04:49:00;16.9;61.5
9666;DHT22;4871;52.004;5.924;2023-07-13T04:50:00;17.0;61.6
9666;DHT22;4871;52.004;5.924;2023-07-13T04:51:01;17.0;61.3
9666;DHT22;4871;52.004;5.924;2023-07-13T04:52:00;17.0;61.3
9666;DHT22;4871;52.004;5.924;2023-07-13T04:53:00;16.9;61.8
9666;DHT22;4871;52.004;5.924;2023-07-13T04:54:00;17.0;61.8
9666;DHT22;4871;52.004;5.924;2023-07-13T04:55:00;17.0;61.6
9666;DHT22;4871;52.004;5.924;2023-07-13T04:56:00;17.0;61.5
9666;DHT22;4871;52.004;5.924;2023-07-13T04:57:00;17.1;61.3
9666;DHT22;4871;52.004;5.924;2023-07-13T04:58:00;17.1;61.2
9666;DHT22;4871;52.004;5.924;2023-07-13T04:59:00;17.1;61.2
9666;DHT22;4871;52.004;5.924;2023-07-13T05:00:01;17.1;61.7
9666;DHT22;4871;52.004;5.924;2023-07-13T05:01:01;17.1;61.7
9666;DHT22;4871;52.004;5.924;2023-07-13T05:02:01;17.1;61.7
9666;DHT22;4871;52.004;5.924;2023-07-13T05:03:00;17.1;61.2
9666;DHT22;4871;52.004;5.924;2023-07-13T05:04:00;17.2;61.0
9666;DHT22;4871;52.004;5.924;2023-07-13T05:05:00;17.2;61.1
9666;DHT22;4871;52.004;5.924;2023-07-13T05:06:02;17.2;61.9
9666;DHT22;4871;52.004;5.924;2023-07-13T05:07:00;17.1;61.7
9666;DHT22;4871;52.004;5.924;2023-07-13T05:08:00;17.2;61.7
9666;DHT22;4871;52.004;5.924;2023-07-13T05:09:00;17.2;61.5
9666;DHT22;4871;52.004;5.924;2023-07-13T05:10:00;17.2;61.5
9666;DHT22;4871;52.004;5.924;2023-07-13T05:11:01;17.2;61.4
9666;DHT22;4871;52.004;5.924;2023-07-13T05:12:00;17.3;61.3
9666;DHT22;4871;52.004;5.924;2023-07-13T05:13:00;17.3;61.2
9666;DHT22;4871;52.004;5.924;2023-07-13T05:14:01;17.3;61.2
9666;DHT22;4871;52.004;5.924;2023-07-13T05:15:01;17.3;61.1
9666;DHT22;4871;52.004;5.924;2023-07-13T05:16:02;17.4;61.1
9666;DHT22;4871;52.004;5.924;2023-07-13T05:17:00;17.4;61.1
9666;DHT22;4871;52.004;5.924;2023-07-13T05:18:00;17.4;61.1
9666;DHT22;4871;52.004;5.924;2023-07-13T05:19:00;17.4;61.1
9666;DHT22;4871;52.004;5.924;2023-07-13T05:20:00;17.4;61.1
9666;DHT22;4871;52.004;5.924;2023-07-13T05:21:02;17.4;61.2
9666;DHT22;4871;52.004;5.924;2023-07-13T05:22:00;17.4;61.4
9666;DHT22;4871;52.004;5.924;2023-07-13T05:23:00;17.4;61.7
9666;DHT22;4871;52.004;5.924;2023-07-13T05:24:00;17.5;61.9
9666;DHT22;4871;52.004;5.924;2023-07-13T05:25:00;17.5;61.6
9666;DHT22;4871;52.004;5.924;2023-07-13T05:26:01;17.5;61.7
9666;DHT22;4871;52.004;5.924;2023-07-13T05:27:00;17.5;61.6
9666;DHT22;4871;52.004;5.924;2023-07-13T05:28:00;17.5;61.6
9666;DHT22;4871;52.004;5.924;2023-07-13T05:29:00;17.5;61.7
9666;DHT22;4871;52.004;5.924;2023-07-13T05:30:00;17.6;61.7
9666;DHT22;4871;52.004;5.924;2023-07-13T05:31:00;17.6;62.0
9666;DHT22;4871;52.004;5.924;2023-07-13T05:32:00;17.6;62.0
9666;DHT22;4871;52.004;5.924;2023-07-13T05:33:00;17.6;62.2
9666;DHT22;4871;52.004;5.924;2023-07-13T05:34:00;17.6;62.2
9666;DHT22;4871;52.004;5.924;2023-07-13T05:35:00;17.6;62.1
9666;DHT22;4871;52.004;5.924;2023-07-13T05:36:01;17.6;62.0
9666;DHT22;4871;52.004;5.924;2023-07-13T05:37:00;17.6;62.2
9666;DHT22;4871;52.004;5.924;2023-07-13T05:38:00;17.6;62.2
9666;DHT22;4871;52.004;5.924;2023-07-13T05:39:00;17.6;62.2
9666;DHT22;4871;52.004;5.924;2023-07-13T05:40:00;17.7;61.9
9666;DHT22;4871;52.004;5.924;2023-07-13T05:41:00;17.7;61.8
9666;DHT22;4871;52.004;5.924;2023-07-13T05:42:01;17.7;61.9
9666;DHT22;4871;52.004;5.924;2023-07-13T05:43:00;17.7;61.9
9666;DHT22;4871;52.004;5.924;2023-07-13T05:44:00;17.7;62.0
9666;DHT22;4871;52.004;5.924;2023-07-13T05:45:00;17.7;62.5
9666;DHT22;4871;52.004;5.924;2023-07-13T05:46:00;17.8;62.2
9666;DHT22;4871;52.004;5.924;2023-07-13T05:47:00;17.8;62.2
9666;DHT22;4871;52.004;5.924;2023-07-13T05:48:00;17.8;61.9
9666;DHT22;4871;52.004;5.924;2023-07-13T05:49:00;17.8;61.9
9666;DHT22;4871;52.004;5.924;2023-07-13T05:50:00;17.8;61.9
9666;DHT22;4871;52.004;5.924;2023-07-13T05:51:00;17.8;62.1
9666;DHT22;4871;52.004;5.924;2023-07-13T05:52:00;17.9;62.0
9666;DHT22;4871;52.004;5.924;2023-07-13T05:53:00;17.9;62.0
9666;DHT22;4871;52.004;5.924;2023-07-13T05:54:00;17.9;62.2
9666;DHT22;4871;52.004;5.924;2023-07-13T05:55:00;17.9;63.0
9666;DHT22;4871;52.004;5.924;2023-07-13T05:56:00;17.9;62.3
9666;DHT22;4871;52.004;5.924;2023-07-13T05:57:00;18.0;62.1
9666;DHT22;4871;52.004;5.924;2023-07-13T05:58:01;18.0;62.3
9666;DHT22;4871;52.004;5.924;2023-07-13T05:59:00;18.0;63.7
9666;DHT22;4871;52.004;5.924;2023-07-13T06:00:00;18.0;62.6
9666;DHT22;4871;52.004;5.924;2023-07-13T06:01:02;18.0;62.1
9666;DHT22;4871;52.004;5.924;2023-07-13T06:02:00;18.1;61.9
9666;DHT22;4871;52.004;5.924;2023-07-13T06:03:00;18.1;61.9
9666;DHT22;4871;52.004;5.924;2023-07-13T06:04:00;18.1;62.3
9666;DHT22;4871;52.004;5.924;2023-07-13T06:05:00;18.2;61.9
9666;DHT22;4871;52.004;5.924;2023-07-13T06:06:00;18.2;62.1
9666;DHT22;4871;52.004;5.924;2023-07-13T06:07:00;18.3;61.8
9666;DHT22;4871;52.004;5.924;2023-07-13T06:08:00;18.3;62.0
9666;DHT22;4871;52.004;5.924;2023-07-13T06:09:00;18.3;61.8
9666;DHT22;4871;52.004;5.924;2023-07-13T06:10:00;18.3;62.6
9666;DHT22;4871;52.004;5.924;2023-07-13T06:11:02;18.4;62.0
9666;DHT22;4871;52.004;5.924;2023-07-13T06:12:00;18.4;61.8
9666;DHT22;4871;52.004;5.924;2023-07-13T06:13:00;18.4;61.7
9666;DHT22;4871;52.004;5.924;2023-07-13T06:14:00;18.4;62.6
9666;DHT22;4871;52.004;5.924;2023-07-13T06:15:00;18.4;62.5
9666;DHT22;4871;52.004;5.924;2023-07-13T06:16:01;18.5;62.0
9666;DHT22;4871;52.004;5.924;2023-07-13T06:17:00;18.5;61.8
9666;DHT22;4871;52.004;5.924;2023-07-13T06:18:00;18.6;61.7
9666;DHT22;4871;52.004;5.924;2023-07-13T06:19:00;18.6;62.1
9666;DHT22;4871;52.004;5.924;2023-07-13T06:20:00;18.6;62.6
9666;DHT22;4871;52.004;5.924;2023-07-13T06:21:00;18.6;61.9
9666;DHT22;4871;52.004;5.924;2023-07-13T06:22:00;18.6;62.2
9666;DHT22;4871;52.004;5.924;2023-07-13T06:23:01;18.6;62.1
9666;DHT22;4871;52.004;5.924;2023-07-13T06:24:00;18.6;62.0
9666;DHT22;4871;52.004;5.924;2023-07-13T06:25:00;18.7;62.4
9666;DHT22;4871;52.004;5.924;2023-07-13T06:26:00;18.7;62.2
9666;DHT22;4871;52.004;5.924;2023-07-13T06:27:00;18.7;62.1
9666;DHT22;4871;52.004;5.924;2023-07-13T06:28:00;18.8;62.1
9666;DHT22;4871;52.004;5.924;2023-07-13T06:29:00;18.8;62.0
9666;DHT22;4871;52.004;5.924;2023-07-13T06:30:00;18.8;61.8
9666;DHT22;4871;52.004;5.924;2023-07-13T06:31:00;18.8;61.8
9666;DHT22;4871;52.004;5.924;2023-07-13T06:32:01;18.8;61.8
9666;DHT22;4871;52.004;5.924;2023-07-13T06:33:00;18.8;61.9
9666;DHT22;4871;52.004;5.924;2023-07-13T06:34:00;18.9;61.6
9666;DHT22;4871;52.004;5.924;2023-07-13T06:35:00;18.9;61.9
9666;DHT22;4871;52.004;5.924;2023-07-13T06:36:00;18.9;62.2
9666;DHT22;4871;52.004;5.924;2023-07-13T06:37:00;18.9;62.5
9666;DHT22;4871;52.004;5.924;2023-07-13T06:38:01;18.9;62.0
9666;DHT22;4871;52.004;5.924;2023-07-13T06:39:00;19.0;62.3
9666;DHT22;4871;52.004;5.924;2023-07-13T06:40:00;19.0;61.8
9666;DHT22;4871;52.004;5.924;2023-07-13T06:41:00;19.0;62.3
9666;DHT22;4871;52.004;5.924;2023-07-13T06:42:00;19.0;61.6
9666;DHT22;4871;52.004;5.924;2023-07-13T06:43:00;19.0;61.5
9666;DHT22;4871;52.004;5.924;2023-07-13T06:44:00;19.0;61.8
9666;DHT22;4871;52.004;5.924;2023-07-13T06:45:00;19.1;61.7